createdAt,value
2022-08-30T00:00:38.263Z,22.11
2022-08-30T00:01:41.894Z,22.12
2022-08-30T00:02:45.307Z,22.13
2022-08-30T00:03:48.540Z,22.14
2022-08-30T00:04:53.650Z,22.15
2022-08-30T00:05:56.771Z,22.15
2022-08-30T00:07:02.085Z,22.14
2022-08-30T00:08:05.214Z,22.15
2022-08-30T00:09:08.617Z,22.15
2022-08-30T00:10:12.352Z,22.16
2022-08-30T00:11:18.963Z,22.16
2022-08-30T00:12:22.156Z,22.17
2022-08-30T00:13:25.439Z,22.18
2022-08-30T00:14:28.679Z,22.18
2022-08-30T00:15:31.883Z,22.19
2022-08-30T00:16:35.648Z,22.19
2022-08-30T00:17:39.190Z,22.20
2022-08-30T00:18:42.775Z,22.21
2022-08-30T00:19:46.896Z,22.21
2022-08-30T00:20:51.054Z,22.17
2022-08-30T00:21:55.545Z,22.17
2022-08-30T00:22:58.409Z,22.15
2022-08-30T00:24:01.666Z,22.11
2022-08-30T00:25:05.654Z,22.10
2022-08-30T00:26:09.057Z,22.08
2022-08-30T00:27:12.051Z,22.06
2022-08-30T00:28:16.364Z,22.04
2022-08-30T00:29:20.034Z,22.01
2022-08-30T00:30:23.570Z,21.98
2022-08-30T00:31:26.735Z,21.95
2022-08-30T00:32:30.662Z,21.92
2022-08-30T00:33:33.933Z,21.89
2022-08-30T00:34:37.021Z,21.87
2022-08-30T00:35:41.022Z,21.83
2022-08-30T00:36:45.211Z,21.80
2022-08-30T00:37:48.515Z,21.78
2022-08-30T00:38:51.547Z,21.75
2022-08-30T00:39:54.622Z,21.75
2022-08-30T00:40:59.233Z,21.76
2022-08-30T00:42:02.440Z,21.76
2022-08-30T00:43:09.585Z,21.79
2022-08-30T00:44:14.620Z,21.79
2022-08-30T00:45:23.986Z,21.81
2022-08-30T00:46:28.104Z,21.81
2022-08-30T00:47:31.349Z,21.82
2022-08-30T00:48:38.021Z,21.83
2022-08-30T00:49:49.468Z,21.83
2022-08-30T00:50:56.215Z,21.83
2022-08-30T00:52:01.953Z,21.83
2022-08-30T00:53:08.612Z,21.84
2022-08-30T00:54:12.207Z,21.87
2022-08-30T00:55:17.552Z,21.86
2022-08-30T00:56:22.851Z,21.88
2022-08-30T00:57:26.106Z,21.88
2022-08-30T00:58:32.582Z,21.86
2022-08-30T00:59:36.070Z,21.86
2022-08-30T01:00:39.786Z,21.85
2022-08-30T01:01:42.937Z,21.86
2022-08-30T01:02:46.340Z,21.86
2022-08-30T01:03:52.874Z,21.86
2022-08-30T01:04:57.210Z,21.87
2022-08-30T01:06:00.933Z,21.88
2022-08-30T01:07:04.069Z,21.89
2022-08-30T01:08:07.461Z,21.89
2022-08-30T01:09:10.669Z,21.88
2022-08-30T01:10:15.150Z,21.88
2022-08-30T01:11:21.646Z,21.87
2022-08-30T01:12:24.820Z,21.87
2022-08-30T01:13:28.020Z,21.88
2022-08-30T01:14:33.592Z,21.87
2022-08-30T01:15:38.275Z,21.85
2022-08-30T01:16:43.368Z,21.83
2022-08-30T01:17:47.543Z,21.81
2022-08-30T01:18:55.468Z,21.81
2022-08-30T01:20:07.956Z,21.79
2022-08-30T01:21:23.464Z,21.77
2022-08-30T01:22:36.333Z,21.75
2022-08-30T01:23:42.942Z,21.70
2022-08-30T01:24:50.275Z,21.68
2022-08-30T01:25:54.765Z,21.66
2022-08-30T01:26:58.500Z,21.63
2022-08-30T01:28:05.218Z,21.62
2022-08-30T01:29:11.923Z,21.61
2022-08-30T01:30:15.344Z,21.61
2022-08-30T01:31:19.132Z,21.60
2022-08-30T01:32:29.026Z,21.62
2022-08-30T01:33:31.418Z,21.63
2022-08-30T01:34:34.965Z,21.63
2022-08-30T01:35:44.545Z,21.62
2022-08-30T01:36:48.877Z,21.60
2022-08-30T01:37:52.140Z,21.60
2022-08-30T01:38:57.172Z,21.59
2022-08-30T01:40:00.473Z,21.59
2022-08-30T01:41:13.309Z,21.60
2022-08-30T01:42:17.657Z,21.61
2022-08-30T01:43:20.888Z,21.62
2022-08-30T01:44:24.007Z,21.62
2022-08-30T01:45:27.260Z,21.62
2022-08-30T01:46:35.496Z,21.61
2022-08-30T01:47:39.840Z,21.59
2022-08-30T01:48:47.348Z,21.58
2022-08-30T01:49:48.916Z,21.56
2022-08-30T01:50:52.547Z,21.55
2022-08-30T01:52:01.095Z,21.52
2022-08-30T01:53:01.398Z,21.50
2022-08-30T01:54:05.085Z,21.49
2022-08-30T01:55:09.068Z,21.48
2022-08-30T01:56:13.873Z,21.45
2022-08-30T01:57:20.589Z,21.43
2022-08-30T01:58:23.894Z,21.40
2022-08-30T01:59:27.065Z,21.38
2022-08-30T02:00:31.763Z,21.36
2022-08-30T02:01:38.682Z,21.34
2022-08-30T02:02:43.235Z,21.33
2022-08-30T02:03:47.874Z,21.33
2022-08-30T02:04:53.020Z,21.34
2022-08-30T02:05:56.535Z,21.35
2022-08-30T02:06:59.895Z,21.37
2022-08-30T02:08:03.670Z,21.37
2022-08-30T02:09:07.130Z,21.38
2022-08-30T02:10:10.646Z,21.40
2022-08-30T02:11:14.839Z,21.43
2022-08-30T02:12:18.491Z,21.44
2022-08-30T02:13:21.512Z,21.46
2022-08-30T02:14:25.026Z,21.48
2022-08-30T02:15:28.147Z,21.49
2022-08-30T02:16:31.901Z,21.52
2022-08-30T02:17:35.130Z,21.53
2022-08-30T02:18:39.461Z,21.55
2022-08-30T02:19:43.122Z,21.55
2022-08-30T02:20:46.488Z,21.55
2022-08-30T02:21:50.161Z,21.55
2022-08-30T02:22:53.280Z,21.53
2022-08-30T02:23:56.426Z,21.51
2022-08-30T02:25:00.445Z,21.51
2022-08-30T02:26:04.677Z,21.49
2022-08-30T02:27:07.701Z,21.45
2022-08-30T02:28:10.990Z,21.44
2022-08-30T02:29:16.169Z,21.42
2022-08-30T02:30:20.502Z,21.40
2022-08-30T02:31:23.705Z,21.40
2022-08-30T02:32:27.215Z,21.40
2022-08-30T02:33:31.331Z,21.41
2022-08-30T02:34:34.438Z,21.40
2022-08-30T02:35:37.526Z,21.37
2022-08-30T02:36:41.490Z,21.36
2022-08-30T02:37:44.622Z,21.33
2022-08-30T02:38:49.008Z,21.31
2022-08-30T02:39:52.143Z,21.31
2022-08-30T02:40:55.685Z,21.32
2022-08-30T02:41:58.919Z,21.33
2022-08-30T02:43:02.068Z,21.36
2022-08-30T02:44:06.613Z,21.36
2022-08-30T02:45:10.524Z,21.38
2022-08-30T02:46:14.537Z,21.40
2022-08-30T02:47:17.855Z,21.42
2022-08-30T02:48:20.971Z,21.44
2022-08-30T02:49:33.073Z,21.43
2022-08-30T02:50:30.717Z,21.44
2022-08-30T02:51:33.793Z,21.43
2022-08-30T02:52:37.449Z,21.41
2022-08-30T02:53:42.227Z,21.40
2022-08-30T02:54:45.706Z,21.40
2022-08-30T02:55:50.741Z,21.39
2022-08-30T02:56:54.198Z,21.38
2022-08-30T02:57:57.228Z,21.36
2022-08-30T02:59:00.516Z,21.35
2022-08-30T03:00:09.543Z,21.33
2022-08-30T03:01:15.479Z,21.31
2022-08-30T03:02:19.655Z,21.29
2022-08-30T03:03:23.169Z,21.27
2022-08-30T03:04:26.799Z,21.26
2022-08-30T03:05:32.428Z,21.25
2022-08-30T03:06:36.139Z,21.24
2022-08-30T03:07:41.048Z,21.25
2022-08-30T03:08:44.387Z,21.25
2022-08-30T03:09:47.644Z,21.28
2022-08-30T03:10:51.001Z,21.32
2022-08-30T03:11:54.124Z,21.35
2022-08-30T03:12:57.612Z,21.38
2022-08-30T03:14:00.746Z,21.41
2022-08-30T03:15:06.213Z,21.43
2022-08-30T03:16:09.468Z,21.46
2022-08-30T03:17:15.544Z,21.50
2022-08-30T03:18:18.792Z,21.52
2022-08-30T03:19:22.004Z,21.54
2022-08-30T03:20:26.125Z,21.56
2022-08-30T03:21:29.227Z,21.58
2022-08-30T03:22:32.367Z,21.61
2022-08-30T03:23:35.766Z,21.63
2022-08-30T03:24:38.935Z,21.65
2022-08-30T03:25:42.065Z,21.67
2022-08-30T03:26:46.776Z,21.69
2022-08-30T03:27:50.546Z,21.71
2022-08-30T03:28:53.773Z,21.72
2022-08-30T03:29:57.029Z,21.72
2022-08-30T03:31:00.633Z,21.73
2022-08-30T03:32:04.037Z,21.74
2022-08-30T03:33:07.208Z,21.74
2022-08-30T03:34:10.495Z,21.75
2022-08-30T03:35:14.473Z,21.77
2022-08-30T03:36:19.622Z,21.79
2022-08-30T03:37:27.259Z,21.79
2022-08-30T03:38:27.696Z,21.79
2022-08-30T03:39:31.369Z,21.81
2022-08-30T03:40:36.696Z,21.81
2022-08-30T03:41:41.276Z,21.83
2022-08-30T03:42:45.096Z,21.83
2022-08-30T03:43:48.186Z,21.84
2022-08-30T03:44:51.381Z,21.83
2022-08-30T03:45:54.544Z,21.85
2022-08-30T03:46:57.654Z,21.85
2022-08-30T03:48:02.055Z,21.86
2022-08-30T03:49:08.225Z,21.88
2022-08-30T03:50:14.211Z,21.89
2022-08-30T03:51:17.817Z,21.91
2022-08-30T03:52:20.941Z,21.94
2022-08-30T03:53:25.810Z,21.97
2022-08-30T03:54:30.928Z,21.98
2022-08-30T03:55:34.159Z,21.98
2022-08-30T03:56:37.719Z,22.00
2022-08-30T03:57:43.546Z,22.00
2022-08-30T03:58:46.806Z,22.01
2022-08-30T03:59:49.910Z,22.02
2022-08-30T04:00:53.365Z,22.03
2022-08-30T04:01:58.401Z,22.05
2022-08-30T04:03:01.566Z,22.05
2022-08-30T04:04:04.795Z,22.07
2022-08-30T04:05:09.791Z,22.07
2022-08-30T04:06:13.656Z,22.07
2022-08-30T04:07:18.701Z,22.09
2022-08-30T04:08:22.866Z,22.10
2022-08-30T04:09:26.154Z,22.10
2022-08-30T04:10:29.957Z,22.10
2022-08-30T04:11:33.495Z,22.09
2022-08-30T04:12:38.712Z,22.09
2022-08-30T04:13:43.210Z,22.09
2022-08-30T04:14:46.300Z,22.09
2022-08-30T04:15:50.033Z,22.07
2022-08-30T04:16:53.424Z,22.07
2022-08-30T04:17:56.812Z,22.03
2022-08-30T04:19:00.021Z,22.01
2022-08-30T04:20:03.878Z,21.99
2022-08-30T04:21:09.485Z,21.97
2022-08-30T04:22:12.389Z,21.95
2022-08-30T04:23:16.117Z,21.92
2022-08-30T04:24:19.488Z,21.90
2022-08-30T04:25:22.794Z,21.90
2022-08-30T04:26:29.234Z,21.91
2022-08-30T04:27:31.892Z,21.93
2022-08-30T04:28:35.528Z,21.94
2022-08-30T04:29:38.897Z,21.96
2022-08-30T04:30:44.366Z,22.00
2022-08-30T04:31:47.537Z,22.02
2022-08-30T04:32:52.044Z,22.05
2022-08-30T04:33:55.801Z,22.08
2022-08-30T04:34:59.713Z,22.10
2022-08-30T04:36:05.287Z,22.13
2022-08-30T04:37:09.908Z,22.16
2022-08-30T04:38:13.923Z,22.19
2022-08-30T04:39:20.163Z,22.21
2022-08-30T04:40:24.837Z,22.21
2022-08-30T04:41:27.913Z,22.22
2022-08-30T04:42:33.669Z,22.23
2022-08-30T04:43:36.690Z,22.24
2022-08-30T04:44:39.884Z,22.23
2022-08-30T04:45:43.018Z,22.23
2022-08-30T04:46:46.336Z,22.24
2022-08-30T04:47:49.651Z,22.25
2022-08-30T04:48:52.890Z,22.23
2022-08-30T04:49:56.170Z,22.26
2022-08-30T04:50:59.321Z,22.28
2022-08-30T04:52:02.801Z,22.31
2022-08-30T04:53:05.986Z,22.33
2022-08-30T04:54:09.127Z,22.35
2022-08-30T04:55:17.998Z,22.38
2022-08-30T04:56:24.676Z,22.40
2022-08-30T04:57:28.096Z,22.43
2022-08-30T04:58:31.256Z,22.47
2022-08-30T04:59:34.360Z,22.50
2022-08-30T05:00:37.671Z,22.51
2022-08-30T05:01:45.380Z,22.56
2022-08-30T05:02:46.463Z,22.56
2022-08-30T05:03:50.929Z,22.59
2022-08-30T05:05:12.507Z,22.63
2022-08-30T05:06:19.937Z,22.63
2022-08-30T05:07:23.091Z,22.67
2022-08-30T05:08:26.203Z,22.68
2022-08-30T05:09:29.309Z,22.74
2022-08-30T05:10:33.658Z,22.74
2022-08-30T05:11:37.647Z,22.76
2022-08-30T05:12:42.739Z,22.79
2022-08-30T05:13:46.238Z,22.81
2022-08-30T05:14:49.939Z,22.83
2022-08-30T05:15:54.192Z,22.85
2022-08-30T05:16:57.489Z,22.86
2022-08-30T05:18:00.579Z,22.88
2022-08-30T05:19:03.753Z,22.88
2022-08-30T05:20:09.467Z,22.90
2022-08-30T05:21:15.868Z,22.91
2022-08-30T05:22:19.175Z,22.92
2022-08-30T05:23:22.290Z,22.94
2022-08-30T05:24:25.671Z,22.94
2022-08-30T05:25:32.069Z,22.95
2022-08-30T05:26:38.112Z,22.96
2022-08-30T05:27:41.281Z,22.96
2022-08-30T05:28:44.932Z,22.97
2022-08-30T05:29:49.273Z,22.98
2022-08-30T05:30:52.515Z,22.99
2022-08-30T05:31:55.699Z,22.99
2022-08-30T05:32:58.946Z,23.01
2022-08-30T05:34:03.180Z,23.04
2022-08-30T05:35:07.571Z,23.06
2022-08-30T05:36:12.403Z,23.09
2022-08-30T05:37:15.649Z,23.10
2022-08-30T05:38:18.833Z,23.12
2022-08-30T05:39:21.980Z,23.15
2022-08-30T05:40:26.605Z,23.17
2022-08-30T05:41:32.339Z,23.19
2022-08-30T05:42:36.440Z,23.22
2022-08-30T05:43:39.940Z,23.24
2022-08-30T05:44:44.359Z,23.28
2022-08-30T05:45:47.569Z,23.31
2022-08-30T05:46:50.799Z,23.33
2022-08-30T05:47:53.873Z,23.36
2022-08-30T05:48:57.105Z,23.39
2022-08-30T05:50:00.319Z,23.42
2022-08-30T05:51:06.956Z,23.43
2022-08-30T05:52:10.118Z,23.46
2022-08-30T05:53:13.233Z,23.47
2022-08-30T05:54:17.178Z,23.49
2022-08-30T05:55:20.371Z,23.51
2022-08-30T05:56:26.568Z,23.53
2022-08-30T05:57:33.405Z,23.55
2022-08-30T05:58:39.793Z,23.58
2022-08-30T05:59:43.313Z,23.61
2022-08-30T06:00:47.135Z,23.63
2022-08-30T06:01:50.534Z,23.66
2022-08-30T06:02:54.305Z,23.68
2022-08-30T06:04:03.706Z,23.71
2022-08-30T06:05:05.508Z,23.74
2022-08-30T06:06:09.514Z,23.77
2022-08-30T06:07:14.925Z,23.80
2022-08-30T06:08:18.333Z,23.82
2022-08-30T06:09:21.711Z,23.84
2022-08-30T06:10:25.285Z,23.86
2022-08-30T06:11:28.427Z,23.90
2022-08-30T06:12:31.708Z,23.91
2022-08-30T06:13:35.228Z,23.94
2022-08-30T06:14:38.931Z,23.96
2022-08-30T06:15:46.567Z,23.97
2022-08-30T06:16:51.312Z,23.99
2022-08-30T06:17:54.495Z,24.01
2022-08-30T06:18:59.637Z,24.03
2022-08-30T06:20:03.145Z,24.04
2022-08-30T06:21:06.743Z,24.05
2022-08-30T06:22:09.916Z,24.07
2022-08-30T06:23:13.641Z,24.10
2022-08-30T06:24:17.095Z,24.12
2022-08-30T06:25:20.835Z,24.15
2022-08-30T06:26:25.163Z,24.18
2022-08-30T06:27:28.351Z,24.20
2022-08-30T06:28:31.896Z,24.23
2022-08-30T06:29:35.076Z,24.24
2022-08-30T06:30:42.444Z,24.27
2022-08-30T06:31:45.732Z,24.29
2022-08-30T06:32:48.874Z,24.32
2022-08-30T06:33:52.588Z,24.35
2022-08-30T06:34:55.680Z,24.38
2022-08-30T06:36:05.946Z,24.40
2022-08-30T06:37:09.633Z,24.43
2022-08-30T06:38:12.798Z,24.45
2022-08-30T06:39:16.072Z,24.47
2022-08-30T06:40:21.160Z,24.49
2022-08-30T06:41:27.495Z,24.53
2022-08-30T06:42:32.514Z,24.56
2022-08-30T06:43:35.886Z,24.58
2022-08-30T06:44:39.008Z,24.59
2022-08-30T06:45:42.153Z,24.61
2022-08-30T06:46:45.575Z,24.63
2022-08-30T06:47:48.909Z,24.66
2022-08-30T06:48:53.062Z,24.70
2022-08-30T06:49:58.819Z,24.73
2022-08-30T06:51:01.996Z,24.75
2022-08-30T06:52:06.072Z,24.77
2022-08-30T06:53:09.437Z,24.80
2022-08-30T06:54:12.947Z,24.83
2022-08-30T06:55:17.146Z,24.86
2022-08-30T06:56:22.132Z,24.90
2022-08-30T06:57:26.427Z,24.92
2022-08-30T06:58:31.714Z,24.95
2022-08-30T06:59:34.910Z,24.99
2022-08-30T07:00:38.351Z,25.02
2022-08-30T07:01:41.743Z,25.04
2022-08-30T07:02:44.954Z,25.08
2022-08-30T07:03:48.144Z,25.11
2022-08-30T07:04:51.453Z,25.14
2022-08-30T07:05:55.941Z,25.17
2022-08-30T07:06:59.456Z,25.21
2022-08-30T07:08:03.861Z,25.24
2022-08-30T07:09:06.994Z,25.27
2022-08-30T07:10:10.975Z,25.31
2022-08-30T07:11:14.190Z,25.34
2022-08-30T07:12:17.420Z,25.37
2022-08-30T07:13:21.257Z,25.41
2022-08-30T07:14:24.499Z,25.44
2022-08-30T07:15:27.626Z,25.47
2022-08-30T07:16:33.849Z,25.51
2022-08-30T07:17:55.069Z,25.54
2022-08-30T07:18:59.904Z,25.57
2022-08-30T07:20:04.938Z,25.60
2022-08-30T07:21:11.638Z,25.63
2022-08-30T07:22:14.860Z,25.66
2022-08-30T07:23:18.649Z,25.71
2022-08-30T07:24:21.845Z,25.73
2022-08-30T07:25:25.080Z,25.77
2022-08-30T07:26:35.493Z,25.79
2022-08-30T07:27:39.365Z,25.82
2022-08-30T07:28:44.695Z,25.85
2022-08-30T07:29:49.356Z,25.91
2022-08-30T07:30:53.042Z,25.94
2022-08-30T07:31:56.185Z,25.94
2022-08-30T07:32:59.451Z,25.98
2022-08-30T07:34:04.457Z,26.01
2022-08-30T07:35:08.414Z,26.05
2022-08-30T07:36:12.904Z,26.07
2022-08-30T07:37:18.059Z,26.10
2022-08-30T07:38:20.942Z,26.13
2022-08-30T07:39:23.965Z,26.16
2022-08-30T07:40:28.210Z,26.21
2022-08-30T07:41:35.175Z,26.24
2022-08-30T07:42:40.221Z,26.28
2022-08-30T07:43:43.502Z,26.31
2022-08-30T07:44:47.217Z,26.34
2022-08-30T07:45:50.364Z,26.37
2022-08-30T07:46:53.769Z,26.39
2022-08-30T07:47:57.201Z,26.42
2022-08-30T07:49:00.809Z,26.47
2022-08-30T07:50:07.536Z,26.49
2022-08-30T07:51:16.152Z,26.53
2022-08-30T07:52:19.660Z,26.55
2022-08-30T07:53:22.921Z,26.60
2022-08-30T07:54:26.225Z,26.63
2022-08-30T07:55:29.369Z,26.66
2022-08-30T07:56:32.463Z,26.69
2022-08-30T07:57:35.558Z,26.72
2022-08-30T07:58:39.163Z,26.75
2022-08-30T07:59:42.688Z,26.77
2022-08-30T08:00:45.888Z,26.81
2022-08-30T08:01:49.217Z,26.82
2022-08-30T08:02:52.509Z,26.84
2022-08-30T08:03:55.754Z,26.88
2022-08-30T08:04:59.387Z,26.90
2022-08-30T08:06:04.131Z,26.91
2022-08-30T08:07:07.204Z,26.93
2022-08-30T08:08:12.420Z,26.97
2022-08-30T08:09:15.744Z,27.00
2022-08-30T08:10:19.493Z,27.03
2022-08-30T08:11:28.352Z,27.05
2022-08-30T08:12:30.771Z,27.08
2022-08-30T08:13:36.643Z,27.10
2022-08-30T08:14:40.814Z,27.13
2022-08-30T08:15:44.176Z,27.16
2022-08-30T08:16:48.084Z,27.19
2022-08-30T08:17:51.379Z,27.21
2022-08-30T08:18:54.699Z,27.25
2022-08-30T08:19:57.936Z,27.27
2022-08-30T08:21:01.543Z,27.29
2022-08-30T08:22:19.885Z,27.31
2022-08-30T08:23:09.937Z,27.32
2022-08-30T08:24:13.262Z,27.35
2022-08-30T08:25:16.439Z,27.36
2022-08-30T08:26:20.402Z,27.39
2022-08-30T08:27:24.198Z,27.41
2022-08-30T08:28:27.299Z,27.43
2022-08-30T08:29:30.599Z,27.46
2022-08-30T08:30:36.696Z,27.47
2022-08-30T08:31:40.904Z,27.50
2022-08-30T08:32:44.270Z,27.53
2022-08-30T08:33:47.748Z,27.54
2022-08-30T08:34:50.987Z,27.58
2022-08-30T08:35:54.280Z,27.59
2022-08-30T08:36:58.282Z,27.61
2022-08-30T08:38:01.812Z,27.64
2022-08-30T08:39:07.233Z,27.65
2022-08-30T08:40:14.988Z,27.68
2022-08-30T08:41:25.058Z,27.69
2022-08-30T08:42:56.127Z,27.71
2022-08-30T08:43:59.508Z,27.72
2022-08-30T08:45:11.523Z,27.76
2022-08-30T08:46:18.216Z,27.78
2022-08-30T08:47:25.258Z,27.79
2022-08-30T08:48:59.607Z,27.81
2022-08-30T08:49:54.116Z,27.84
2022-08-30T08:51:15.717Z,27.84
2022-08-30T08:52:49.786Z,27.86
2022-08-30T08:53:59.502Z,27.87
2022-08-30T08:55:09.520Z,27.88
2022-08-30T08:56:15.977Z,27.89
2022-08-30T08:57:22.660Z,27.90
2022-08-30T08:58:30.609Z,27.92
2022-08-30T08:59:33.824Z,27.93
2022-08-30T09:00:39.001Z,27.95
2022-08-30T09:01:42.355Z,27.96
2022-08-30T09:03:00.557Z,27.98
2022-08-30T09:04:07.381Z,28.00
2022-08-30T09:05:14.196Z,28.03
2022-08-30T09:06:33.863Z,28.05
2022-08-30T09:07:40.674Z,28.06
2022-08-30T09:08:43.829Z,28.09
2022-08-30T09:09:47.357Z,28.10
2022-08-30T09:11:05.133Z,28.12
2022-08-30T09:12:10.761Z,28.14
2022-08-30T09:13:14.086Z,28.16
2022-08-30T09:14:21.300Z,28.18
2022-08-30T09:15:27.812Z,28.19
2022-08-30T09:16:54.002Z,28.21
2022-08-30T09:18:04.082Z,28.23
2022-08-30T09:19:07.486Z,28.24
2022-08-30T09:20:12.237Z,28.26
2022-08-30T09:21:18.953Z,28.28
2022-08-30T09:22:37.427Z,28.30
2022-08-30T09:23:50.233Z,28.30
2022-08-30T09:24:57.053Z,28.32
2022-08-30T09:26:06.585Z,28.33
2022-08-30T09:27:18.855Z,28.33
2022-08-30T09:28:27.141Z,28.36
2022-08-30T09:29:30.782Z,28.38
2022-08-30T09:30:34.509Z,28.40
2022-08-30T09:31:52.932Z,28.43
2022-08-30T09:32:58.667Z,28.44
2022-08-30T09:34:10.595Z,28.47
2022-08-30T09:36:30.957Z,28.61
2022-08-30T09:37:37.785Z,28.53
2022-08-30T09:38:40.912Z,28.54
2022-08-30T09:39:45.844Z,28.56
2022-08-30T09:40:52.058Z,28.57
2022-08-30T09:42:14.232Z,28.58
2022-08-30T09:43:20.916Z,28.61
2022-08-30T09:44:30.101Z,28.62
2022-08-30T09:45:39.717Z,28.63
2022-08-30T09:46:49.521Z,28.65
2022-08-30T09:47:53.751Z,28.66
2022-08-30T09:48:58.261Z,28.67
2022-08-30T09:50:09.703Z,28.67
2022-08-30T09:51:16.490Z,28.67
2022-08-30T09:52:44.475Z,28.69
2022-08-30T09:54:17.480Z,28.71
2022-08-30T09:55:28.444Z,28.75
2022-08-30T09:56:39.663Z,28.76
2022-08-30T09:58:10.582Z,28.79
2022-08-30T09:59:42.885Z,28.81
2022-08-30T10:01:06.252Z,28.83
2022-08-30T10:02:28.464Z,28.86
2022-08-30T10:03:53.599Z,28.87
2022-08-30T10:05:09.327Z,28.89
2022-08-30T10:06:17.155Z,28.90
2022-08-30T10:07:29.757Z,28.92
2022-08-30T10:08:36.321Z,28.94
2022-08-30T10:09:48.834Z,28.96
2022-08-30T10:11:03.403Z,28.97
2022-08-30T10:12:27.915Z,28.99
2022-08-30T10:13:43.616Z,29.00
2022-08-30T10:14:57.697Z,29.01
2022-08-30T10:16:10.357Z,29.03
2022-08-30T10:17:51.798Z,29.04
2022-08-30T10:19:06.308Z,29.06
2022-08-30T10:20:25.363Z,29.08
2022-08-30T10:21:44.184Z,29.08
2022-08-30T10:22:57.617Z,29.08
2022-08-30T10:24:11.645Z,29.09
2022-08-30T10:25:37.016Z,29.09
2022-08-30T10:26:49.812Z,29.10
2022-08-30T10:28:03.097Z,29.10
2022-08-30T10:29:12.952Z,29.10
2022-08-30T10:30:17.540Z,29.12
2022-08-30T10:31:32.674Z,29.12
2022-08-30T10:32:48.167Z,29.14
2022-08-30T10:33:54.646Z,29.17
2022-08-30T10:35:07.509Z,29.18
2022-08-30T10:36:13.961Z,29.21
2022-08-30T10:37:26.720Z,29.23
2022-08-30T10:38:38.851Z,29.26
2022-08-30T10:39:45.581Z,29.28
2022-08-30T10:41:10.350Z,29.30
2022-08-30T10:42:20.844Z,29.32
2022-08-30T10:43:38.132Z,29.33
2022-08-30T10:44:47.703Z,29.34
2022-08-30T10:45:53.574Z,29.37
2022-08-30T10:47:18.576Z,29.38
2022-08-30T10:48:27.106Z,29.40
2022-08-30T10:49:33.813Z,29.42
2022-08-30T10:50:46.585Z,29.43
2022-08-30T10:52:00.775Z,29.44
2022-08-30T10:53:25.147Z,29.47
2022-08-30T10:54:43.985Z,29.49
2022-08-30T10:56:08.070Z,29.53
2022-08-30T10:57:11.309Z,29.57
2022-08-30T10:58:16.055Z,29.58
2022-08-30T10:59:20.502Z,29.60
2022-08-30T11:00:29.693Z,29.61
2022-08-30T11:01:53.048Z,29.61
2022-08-30T11:03:19.588Z,29.62
2022-08-30T11:05:00.713Z,29.62
2022-08-30T11:06:22.788Z,29.62
2022-08-30T11:07:54.943Z,29.62
2022-08-30T11:09:15.210Z,29.61
2022-08-30T11:10:38.529Z,29.60
2022-08-30T11:11:54.484Z,29.60
2022-08-30T11:13:01.318Z,29.60
2022-08-30T11:14:06.663Z,29.60
2022-08-30T11:15:19.146Z,29.62
2022-08-30T11:16:44.310Z,29.63
2022-08-30T11:18:00.248Z,29.64
2022-08-30T11:19:05.931Z,29.66
2022-08-30T11:20:31.092Z,29.67
2022-08-30T11:21:38.921Z,29.68
2022-08-30T11:22:43.965Z,29.68
2022-08-30T11:24:12.282Z,29.68
2022-08-30T11:25:18.579Z,29.69
2022-08-30T11:26:49.476Z,29.70
2022-08-30T11:27:56.903Z,29.69
2022-08-30T11:29:04.313Z,29.72
2022-08-30T11:30:28.284Z,29.72
2022-08-30T11:31:37.536Z,29.72
2022-08-30T11:33:02.441Z,29.75
2022-08-30T11:34:07.841Z,29.76
2022-08-30T11:35:11.231Z,29.77
2022-08-30T11:36:37.541Z,29.78
2022-08-30T11:37:44.404Z,29.79
2022-08-30T11:38:51.325Z,29.79
2022-08-30T11:39:57.992Z,29.79
2022-08-30T11:41:09.784Z,29.81
2022-08-30T11:42:32.496Z,29.81
2022-08-30T11:43:39.555Z,29.82
2022-08-30T11:44:42.699Z,29.84
2022-08-30T11:45:50.166Z,29.85
2022-08-30T11:46:58.090Z,29.86
2022-08-30T11:48:05.165Z,29.88
2022-08-30T11:49:14.599Z,29.89
2022-08-30T11:50:28.354Z,29.91
2022-08-30T11:52:08.377Z,29.91
2022-08-30T11:53:01.365Z,29.92
2022-08-30T11:54:24.784Z,29.93
2022-08-30T11:55:49.630Z,29.93
2022-08-30T11:56:56.550Z,29.94
2022-08-30T11:58:18.819Z,29.95
2022-08-30T11:59:46.588Z,29.96
2022-08-30T12:00:54.065Z,29.97
2022-08-30T12:01:57.921Z,29.98
2022-08-30T12:03:05.489Z,29.98
2022-08-30T12:04:15.612Z,29.98
2022-08-30T12:05:40.527Z,29.99
2022-08-30T12:06:49.884Z,29.98
2022-08-30T12:08:02.067Z,29.99
2022-08-30T12:09:09.370Z,30.01
2022-08-30T12:10:16.929Z,30.03
2022-08-30T12:11:23.649Z,30.04
2022-08-30T12:12:33.433Z,30.06
2022-08-30T12:13:46.250Z,30.07
2022-08-30T12:14:53.933Z,30.09
2022-08-30T12:16:00.369Z,30.10
2022-08-30T12:17:41.940Z,30.10
2022-08-30T12:18:56.671Z,30.12
2022-08-30T12:20:00.320Z,30.13
2022-08-30T12:21:23.353Z,30.12
2022-08-30T12:22:28.376Z,30.13
2022-08-30T12:23:44.914Z,30.14
2022-08-30T12:24:49.432Z,30.14
2022-08-30T12:26:13.480Z,30.15
2022-08-30T12:27:32.718Z,30.16
2022-08-30T12:28:35.901Z,30.17
2022-08-30T12:29:43.203Z,30.18
2022-08-30T12:30:46.954Z,30.19
2022-08-30T12:32:03.352Z,30.21
2022-08-30T12:33:11.540Z,30.20
2022-08-30T12:34:27.379Z,30.20
2022-08-30T12:35:31.360Z,30.21
2022-08-30T12:36:41.071Z,30.22
2022-08-30T12:37:46.096Z,30.23
2022-08-30T12:38:51.061Z,30.23
2022-08-30T12:40:09.954Z,30.24
2022-08-30T12:41:16.762Z,30.24
2022-08-30T12:42:23.461Z,30.24
2022-08-30T12:43:38.775Z,30.23
2022-08-30T12:44:37.893Z,30.23
2022-08-30T12:45:50.514Z,30.24
2022-08-30T12:46:59.707Z,30.24
2022-08-30T12:48:10.545Z,30.24
2022-08-30T12:49:17.142Z,30.24
2022-08-30T12:50:24.071Z,30.25
2022-08-30T12:52:50.702Z,30.38
2022-08-30T12:53:55.735Z,30.29
2022-08-30T12:55:17.495Z,30.29
2022-08-30T12:56:35.110Z,30.29
2022-08-30T12:57:44.489Z,30.32
2022-08-30T12:58:51.028Z,30.32
2022-08-30T12:59:59.429Z,30.33
2022-08-30T13:01:31.337Z,30.32
2022-08-30T13:02:51.544Z,30.33
2022-08-30T13:03:58.255Z,30.31
2022-08-30T13:05:06.453Z,30.31
2022-08-30T13:06:10.308Z,30.31
2022-08-30T13:07:29.434Z,30.30
2022-08-30T13:08:37.541Z,30.30
2022-08-30T13:09:43.560Z,30.29
2022-08-30T13:10:54.323Z,30.29
2022-08-30T13:11:58.886Z,30.29
2022-08-30T13:13:04.784Z,30.28
2022-08-30T13:14:31.962Z,30.28
2022-08-30T13:15:39.400Z,30.28
2022-08-30T13:16:45.296Z,30.25
2022-08-30T13:17:47.611Z,30.27
2022-08-30T13:19:27.411Z,30.25
2022-08-30T13:20:31.317Z,30.26
2022-08-30T13:21:34.941Z,30.26
2022-08-30T13:22:42.132Z,30.25
2022-08-30T13:23:45.251Z,30.25
2022-08-30T13:24:50.848Z,30.26
2022-08-30T13:25:55.765Z,30.27
2022-08-30T13:27:06.067Z,30.26
2022-08-30T13:28:11.163Z,30.27
2022-08-30T13:29:20.052Z,30.29
2022-08-30T13:30:24.724Z,30.30
2022-08-30T13:31:30.359Z,30.32
2022-08-30T13:32:38.649Z,30.33
2022-08-30T13:33:40.574Z,30.34
2022-08-30T13:34:44.699Z,30.35
2022-08-30T13:35:47.788Z,30.36
2022-08-30T13:36:54.015Z,30.39
2022-08-30T13:37:59.402Z,30.40
2022-08-30T13:39:04.640Z,30.43
2022-08-30T13:40:10.366Z,30.46
2022-08-30T13:41:14.829Z,30.49
2022-08-30T13:42:33.324Z,30.52
2022-08-30T13:43:23.134Z,30.56
2022-08-30T13:44:28.055Z,30.59
2022-08-30T13:45:48.574Z,30.62
2022-08-30T13:46:42.095Z,30.67
2022-08-30T13:47:48.287Z,30.72
2022-08-30T13:48:54.995Z,30.78
2022-08-30T13:49:58.950Z,30.83
2022-08-30T13:51:02.255Z,30.88
2022-08-30T13:52:23.292Z,30.91
2022-08-30T13:53:13.278Z,30.97
2022-08-30T13:54:16.540Z,31.03
2022-08-30T13:55:19.794Z,31.06
2022-08-30T13:56:25.564Z,31.12
2022-08-30T13:58:35.620Z,31.21
2022-08-30T13:59:38.821Z,31.29
2022-08-30T14:00:45.425Z,31.29
2022-08-30T14:02:55.778Z,31.38
2022-08-30T14:04:15.671Z,31.42
2022-08-30T14:05:05.638Z,31.46
2022-08-30T14:06:31.658Z,31.49
2022-08-30T14:07:19.894Z,31.54
2022-08-30T14:08:47.911Z,31.56
2022-08-30T14:09:35.069Z,31.61
2022-08-30T14:10:46.450Z,31.65
2022-08-30T14:11:43.700Z,31.68
2022-08-30T14:12:56.192Z,31.70
2022-08-30T14:14:59.459Z,31.77
2022-08-30T14:17:19.233Z,31.81
2022-08-30T14:18:22.859Z,31.83
2022-08-30T14:19:27.046Z,31.85
2022-08-30T14:20:31.890Z,31.87
2022-08-30T14:21:36.006Z,31.88
2022-08-30T14:22:39.324Z,31.90
2022-08-30T14:23:42.521Z,31.92
2022-08-30T14:24:45.623Z,31.92
2022-08-30T14:25:48.913Z,31.94
2022-08-30T14:26:54.068Z,31.94
2022-08-30T14:27:57.233Z,31.95